Listado único de aspirantes (Periodo de valoración 31 octubre de 2020)


* Listado ordenado por el total Autobaremo. Recuerde que también puede ordenarlo por Apellidos, Nombre

Listado único de aspirantes admitidos en turno libre en la bolsa de selección de personal estatutario temporal, categoría: Técnico Especialista Radiodiagnóstico
Apellidos, Nombre Exp. SAS Auto. Exp. NO SAS Auto. Form. Auto. otros méritos Total Auto. Exp. SAS Baremo Exp. NO SAS Baremo Form. Baremo Otros méritos Punt. Total Baremo Fecha Act.
MORILLO MORILLO, ANTONIA 5,100 0,000 25,000 0,000 30,100 5,100 0,000 25,000 0,000 30,100 21/07/2021
ORTIZ BERMUDEZ, Mª CARMEN 0,000 5,100 25,000 0,000 30,100 0,000 0,000 9,000 0,000 9,000 21/07/2021
PASTOR ALVARO, PATRICIA 0,000 5,100 25,000 0,000 30,100 0,000 5,100 25,000 0,000 30,100 21/07/2021
PEREZ AGUILAR, ROSA 2,100 0,000 25,000 3,000 30,100 2,100 0,000 25,000 3,000 30,100 21/07/2021
RODRÍGUEZ LÓPEZ, SILVIA 0,900 1,200 25,000 3,000 30,100 0,900 0,000 19,375 3,000 23,275 21/07/2021
RODRIGUEZ PALMA, BEATRIZ 0,000 1,100 29,000 0,000 30,100 0,000 0,000 29,000 0,000 29,000 21/07/2021
RUANO LINARES, NURIA MARÍA 1,100 0,000 29,000 0,000 30,100 1,100 0,000 29,000 0,000 30,100 21/07/2021
TOAJAS MELLADO, BELINDA 0,600 4,500 25,000 0,000 30,100 0,600 4,500 25,000 0,000 30,100 21/07/2021
VELA ARAGON, MARIA VICTORIA 1,100 0,000 29,000 0,000 30,100 1,100 0,000 29,000 0,000 30,100 21/07/2021
CHACON SANCHEZ, MANUEL 2,050 0,000 25,000 3,000 30,050 2,050 0,000 25,000 3,000 30,050 21/07/2021
COBACHO DE LOS SANTOS, NATALIA 1,050 0,000 29,000 0,000 30,050 1,050 0,000 25,000 0,000 26,050 21/07/2021
FERRER MALDONADO, LORENA 0,550 0,000 29,000 0,500 30,050 0,550 0,000 29,000 0,000 29,550 21/07/2021
JAIME CAÑIZARES, SOLEDAD 0,550 0,000 29,000 0,500 30,050 0,550 0,000 29,000 0,000 29,550 21/07/2021
JIMENEZ CABELLO, ROCIO 1,050 0,000 29,000 0,000 30,050 1,050 0,000 23,450 0,000 24,500 21/07/2021
MATEOS SOLÍS, ALEJANDRO 1,050 0,000 29,000 0,000 30,050 1,050 0,000 26,850 0,000 27,900 21/07/2021
MUÑOZ JAPÓN, VANESA 0,300 0,000 29,000 0,750 30,050 0,300 0,000 25,000 0,250 25,550 21/07/2021
RODRÍGUEZ MONTUFO, NOELIA 0,900 0,000 29,000 0,150 30,050 0,900 0,000 25,000 0,000 25,900 21/07/2021
ROMERO RODRIGUEZ, ROSARIO 1,050 0,000 29,000 0,000 30,050 1,050 0,000 29,000 0,000 30,050 21/07/2021
VÁZQUEZ ROMERO, DIEGO 0,000 1,050 29,000 0,000 30,050 0,000 0,150 29,000 0,000 29,150 21/07/2021
ALONSO SÁNCHEZ, RAQUEL 1,000 0,000 29,000 0,000 30,000 1,000 0,000 8,200 0,000 9,200 21/07/2021
ATERO FERNÁNDEZ, MÓNICA 1,000 0,000 29,000 0,000 30,000 1,000 0,000 29,000 0,000 30,000 21/07/2021
BEGINES FALCON, ANA BELEN 0,000 0,000 29,000 1,000 30,000 0,000 0,000 29,000 0,000 29,000 21/07/2021
BERRAL JIMENEZ, MARIA 0,500 0,000 29,000 0,500 30,000 0,500 0,000 29,000 0,000 29,500 21/07/2021
BORGHOL TABBA, AHMAD 0,000 25,000 5,000 0,000 30,000 0,000 0,000 0,000 0,000 0,000 21/07/2021
CANO COBACHO, CRISTINA 0,350 0,650 29,000 0,000 30,000 0,350 0,000 11,500 0,000 11,850 21/07/2021
CARRASCO PRIETO, Mª ROCÍO 1,000 0,000 29,000 0,000 30,000 1,000 0,000 29,000 0,000 30,000 21/07/2021
DÍAZ TORRES, Mª DEL PILAR 2,000 0,000 25,000 3,000 30,000 2,000 0,000 25,000 3,000 30,000 21/07/2021
FERNANDEZ GARCIA, MARIA JOSE 0,700 0,300 29,000 0,000 30,000 0,700 0,000 29,000 0,000 29,700 21/07/2021
GALLEGOS JIMENEZ, ROCIO 1,000 0,000 29,000 0,000 30,000 1,000 0,000 29,000 0,000 30,000 21/07/2021
GARCÍA GARCÍA, Mª ESTHER 0,000 1,000 29,000 0,000 30,000 0,000 0,000 29,000 0,000 29,000 21/07/2021
GONZALEZ SANCHEZ, MARIA ALEJANDRA 1,000 0,000 29,000 0,000 30,000 1,000 0,000 4,600 0,000 5,600 21/07/2021
KRASIMIROVA BLAZHEVA, GALINA 0,600 0,400 29,000 0,000 30,000 0,600 0,000 11,500 0,000 12,100 21/07/2021
LOPEZ ARJONA, PILAR MARIA 0,000 1,000 29,000 0,000 30,000 0,000 1,000 29,000 0,000 30,000 21/07/2021
LUPIÁÑEZ GARCÍA, ANA 0,000 0,000 29,000 1,000 30,000 0,000 0,000 29,000 0,000 29,000 21/07/2021
MARTINEZ ARANDA, MARIO 0,000 1,000 29,000 0,000 30,000 0,000 0,000 29,000 0,000 29,000 21/07/2021
MIRANDA LUQUE, MARIA MERCEDES 1,000 0,000 29,000 0,000 30,000 1,000 0,000 22,500 0,000 23,500 21/07/2021
MORAL CARRILLO, MANUEL HORACIO 0,000 9,000 21,000 0,000 30,000 0,000 0,000 0,000 0,000 0,000 21/07/2021
MORENO RUIZ, MARÍA DEL MAR 0,750 0,000 29,000 0,250 30,000 0,750 0,000 29,000 0,000 29,750 21/07/2021
PEREZ RODRIGUEZ, ALICIA MARIA 0,000 18,000 12,000 0,000 30,000 0,000 0,000 10,100 0,000 10,100 21/07/2021
RODRIGUEZ AZUAGA, MARIO 0,000 0,000 29,000 1,000 30,000 0,000 0,000 29,000 0,000 29,000 21/07/2021
SANCHEZ ARROYO, ANTONIA 0,300 0,700 29,000 0,000 30,000 0,300 0,700 29,000 0,000 30,000 21/07/2021
VARGAS PRATS, ANGELA 0,000 0,000 29,000 1,000 30,000 0,000 0,000 29,000 0,000 29,000 21/07/2021
WIC ONIEVA, JUAN ALBERTO 0,000 1,000 29,000 0,000 30,000 0,000 1,000 20,300 0,000 21,300 21/07/2021
ÁLVAREZ ESTRADA, MARIA DE LOS ÁNGELES 0,900 0,050 29,000 0,000 29,950 0,900 0,000 29,000 0,000 29,900 21/07/2021
ANDREU CANO, ELENA 0,000 0,950 29,000 0,000 29,950 0,000 0,850 16,750 0,000 17,600 21/07/2021
CANO AZOR, ELISABET 0,050 0,900 29,000 0,000 29,950 0,050 0,000 29,000 0,000 29,050 21/07/2021
COROMINAS LEDESMA, AZAHARA 0,400 0,550 29,000 0,000 29,950 0,400 0,350 29,000 0,000 29,750 21/07/2021
FLORES FERNANDEZ, REMEDIOS 0,950 0,000 29,000 0,000 29,950 0,950 0,000 29,000 0,000 29,950 21/07/2021
GARRIDO LOPEZ, ROCIO 0,000 4,950 25,000 0,000 29,950 0,000 0,000 25,000 0,000 25,000 21/07/2021
GONZÁLEZ GAMINO, LORENA 0,300 0,650 29,000 0,000 29,950 0,300 0,000 29,000 0,000 29,300 21/07/2021
MANZANO PRIETO, ISABEL MARIA 0,550 0,100 29,000 0,300 29,950 0,550 0,100 29,000 0,000 29,650 21/07/2021
MARTÍN GALLARDO, MACARENA DEL ROCIO 0,950 0,000 29,000 0,000 29,950 0,950 0,000 29,000 0,000 29,950 21/07/2021
PORTERO POLO, ELENA 0,950 0,000 29,000 0,000 29,950 0,950 0,000 29,000 0,000 29,950 21/07/2021
QUESADA GONZALEZ, Mª DE LOS REYES 0,900 0,000 29,000 0,050 29,950 0,900 0,000 29,000 0,000 29,900 21/07/2021
RODRÍGUEZ VILLEGAS, PILAR 0,150 0,300 29,000 0,500 29,950 0,150 0,000 25,000 0,000 25,150 21/07/2021
ROLDÁN JIMÉNEZ, LAURA 0,050 0,100 29,000 0,800 29,950 0,050 0,100 29,000 0,000 29,150 21/07/2021
TRUJILLO ALONSO, CLAUDIA DEL ROCIO 0,850 0,100 29,000 0,000 29,950 0,850 0,000 29,000 0,000 29,850 21/07/2021
TRUJILLO MARIN, MANUEL 0,000 0,950 29,000 0,000 29,950 0,000 0,950 29,000 0,000 29,950 21/07/2021
PODEROSO PACHON, JOSE LUIS 0,000 0,900 29,000 0,025 29,925 0,000 0,900 21,000 0,000 21,900 21/07/2021
BARQUERO GORDILLO, MARTA 0,000 0,900 29,000 0,000 29,900 0,000 0,000 25,000 0,000 25,000 21/07/2021
BERENGUER DONATE, CRISTINA 0,000 0,900 29,000 0,000 29,900 0,000 0,000 29,000 0,000 29,000 21/07/2021
CANO DIAZ, VERONICA 0,000 0,900 29,000 0,000 29,900 0,000 0,000 0,000 0,000 0,000 21/07/2021
CASTAÑO OROZCO, LOURDES 0,000 4,900 25,000 0,000 29,900 0,000 0,000 25,000 0,000 25,000 21/07/2021
DURÁN ROMERO, FÁTIMA 0,300 0,600 29,000 0,000 29,900 0,300 0,600 29,000 0,000 29,900 21/07/2021
FERNANDEZ JIMENEZ, JOSE MIGUEL 0,900 0,000 29,000 0,000 29,900 0,900 0,000 29,000 0,000 29,900 21/07/2021
FERRE GALERA, MARÍA BELÉN 0,000 0,900 29,000 0,000 29,900 0,000 0,000 20,000 0,000 20,000 21/07/2021
GARCIA GONZALEZ, IRENE 0,900 0,000 29,000 0,000 29,900 0,900 0,000 29,000 0,000 29,900 21/07/2021
GIL ARJONA, FRANCISCO 0,900 0,000 29,000 0,000 29,900 0,900 0,000 29,000 0,000 29,900 21/07/2021
GIL ESPINOSA, Mª ELENA 0,900 0,000 29,000 0,000 29,900 0,900 0,000 29,000 0,000 29,900 21/07/2021
GRANDA SALINAS, ALBA 0,600 0,000 29,000 0,300 29,900 0,600 0,000 29,000 0,000 29,600 21/07/2021
HERNANDEZ ABAD, CRISTINA 0,000 0,900 29,000 0,000 29,900 0,000 0,000 25,000 0,000 25,000 21/07/2021
LIRIA SEGURA, ANTONIO JAVIER 0,000 4,900 25,000 0,000 29,900 0,000 3,900 25,000 0,000 28,900 21/07/2021
LÓPEZ GALLURT, ELENA 0,000 0,900 29,000 0,000 29,900 0,000 0,900 26,750 0,000 27,650 21/07/2021
LÓPEZ MUÑOZ, ALBERTO 0,900 0,000 29,000 0,000 29,900 0,900 0,000 29,000 0,000 29,900 21/07/2021
MARTÍNEZ SAEZ, MARÍA DOLORES 0,900 0,000 29,000 0,000 29,900 0,900 0,000 25,000 0,000 25,900 21/07/2021
MARTÍNEZ SÁNCHEZ, MIRIAM 0,000 0,000 29,000 0,900 29,900 0,000 0,000 29,000 0,000 29,000 21/07/2021
MORENO FARGAS, PATRICIA 0,000 0,900 29,000 0,000 29,900 0,000 0,000 29,000 0,000 29,000 21/07/2021
MORILLO MORA, ALBA 0,900 0,000 29,000 0,000 29,900 0,900 0,000 29,000 0,000 29,900 21/07/2021
NAVARRO LEIVA, MARIA CONCEPCIÓN 0,900 0,000 29,000 0,000 29,900 0,900 0,000 29,000 0,000 29,900 21/07/2021
PARRA MARTINEZ, ANGELES 1,800 0,100 25,000 3,000 29,900 1,800 0,100 25,000 3,000 29,900 21/07/2021
REY GARCIA, MARIA JOSE 0,900 0,000 29,000 0,000 29,900 0,900 0,000 20,750 0,000 21,650 21/07/2021
RODRIGUEZ RIOJA, LIDIA 0,300 4,600 25,000 0,000 29,900 0,300 4,600 25,000 0,000 29,900 21/07/2021
SÁNCHEZ CANO, FRANCISCO JAVIER 0,000 0,900 29,000 0,000 29,900 0,000 0,900 25,050 0,000 25,950 21/07/2021
TRONCOSO GONZALEZ, DAVID 0,900 0,000 29,000 0,000 29,900 0,900 0,000 29,000 0,000 29,900 21/07/2021
BARRAGAN PAREDES, CESAR 0,000 9,300 17,550 3,000 29,850 0,000 9,300 13,550 3,000 25,850 21/07/2021
DE HARO GARCIA, MARIA MERCEDES 6,000 4,650 23,850 0,000 29,850 6,000 4,650 10,950 0,000 16,950 21/07/2021
LÓPEZ GARCÍA, JOSÉ 0,000 4,850 25,000 0,000 29,850 0,000 0,000 25,000 0,000 25,000 21/07/2021
LOPEZ ZURERA, M DOLORES 4,100 0,250 25,000 0,500 29,850 4,100 0,000 25,000 0,000 29,100 21/07/2021
MACIAS GALINDO, JOSE ANTONIO 0,850 0,000 29,000 0,000 29,850 0,850 0,000 25,000 0,000 25,850 21/07/2021
MARTINEZ RODRIGUEZ, MIGUEL ANGEL 0,600 0,250 29,000 0,000 29,850 0,600 0,000 29,000 0,000 29,600 21/07/2021
NUÑEZ HIDALGO, MACARENA 0,700 0,000 29,000 0,150 29,850 0,700 0,000 29,000 0,000 29,700 21/07/2021
PÉREZ SÁNCHEZ, SALUD 0,600 0,100 29,000 0,150 29,850 0,600 0,000 29,000 0,000 29,600 21/07/2021
RODRIGO LOPEZ, MACARENA 0,400 4,450 25,000 0,000 29,850 0,400 0,000 25,000 0,000 25,400 21/07/2021
ROMERA GUERRERO, ANTONIO 2,100 0,250 27,500 0,000 29,850 2,100 0,250 27,500 0,000 29,850 21/07/2021
RUIZ RUANO ROMERO, Mª CONSUELO 0,850 0,000 29,000 0,000 29,850 0,850 0,000 29,000 0,000 29,850 21/07/2021
SANCHEZ LAGARES, JUAN JOSE 0,000 0,850 29,000 0,000 29,850 0,000 0,700 29,000 0,000 29,700 21/07/2021
TOLEDO RODRÍGUEZ, CONCHI 4,850 0,000 25,000 0,000 29,850 4,850 0,000 25,000 0,000 29,850 21/07/2021
BOLLERO CASTRO, MARÍA DEL SOL 0,000 1,800 25,000 3,000 29,800 0,000 1,750 20,000 3,000 24,750 21/07/2021
CASTRO RIOS, PABLO 1,800 0,000 25,000 3,000 29,800 1,800 0,000 25,000 3,000 29,800 21/07/2021
CORRAL RODRIGUEZ, ELENA 0,000 0,000 29,000 0,800 29,800 0,000 0,000 25,000 0,000 25,000 21/07/2021
GARCÍA GARCÍA, LIDIA 0,000 0,800 29,000 0,000 29,800 0,000 0,800 29,000 0,000 29,800 21/07/2021
GARCÍA GARCÍA, Mª JOSE 0,800 0,000 29,000 0,000 29,800 0,800 0,000 29,000 0,000 29,800 21/07/2021
HIDALGO CABAÑAS, JOSÉ 0,000 0,300 29,000 0,500 29,800 0,000 0,000 29,000 0,000 29,000 21/07/2021
LOPEZ ORTEGA, INMACULADA 0,800 0,000 29,000 0,000 29,800 0,800 0,000 25,000 0,000 25,800 21/07/2021
MOLES NÚÑEZ, YOLANDA 0,500 0,300 29,000 0,000 29,800 0,500 0,300 20,650 0,000 21,450 21/07/2021
MORENO CARMONA, MARIA TERESA 0,500 0,300 29,000 0,000 29,800 0,500 0,050 29,000 0,000 29,550 21/07/2021
MORENO RUIZ, OLGA SALUD 0,200 0,600 29,000 0,000 29,800 0,200 0,000 25,000 0,000 25,200 21/07/2021
RODRIGUEZ MONTERO, ROCIO 0,800 0,000 29,000 0,000 29,800 0,800 0,000 29,000 0,000 29,800 21/07/2021
ROMERO BARRIENTOS, CARMEN LAURA 0,700 0,100 29,000 0,000 29,800 0,700 0,100 29,000 0,000 29,800 21/07/2021
SANCHEZ REYES, SERGIO 0,000 1,800 25,000 3,000 29,800 0,000 1,800 25,000 3,000 29,800 21/07/2021
TEJERO CABALLERO, MARIA JOSE 0,000 0,850 28,950 0,000 29,800 0,000 0,850 28,950 0,000 29,800 21/07/2021
URIBE LLORENTE, FRANCISCA LUPE 0,600 4,200 25,000 0,000 29,800 0,600 4,200 25,000 0,000 29,800 21/07/2021
VITORIQUE MACIAS, Mª MILAGROSA 1,500 3,300 25,000 0,000 29,800 1,500 3,300 25,000 0,000 29,800 21/07/2021
AMARO MORGADO, ANA ISABEL 0,750 0,000 29,000 0,000 29,750 0,750 0,000 29,000 0,000 29,750 21/07/2021
ARDITE RUIZ, MARCO ANTONIO 0,150 0,600 29,000 0,000 29,750 0,150 0,600 23,650 0,000 24,400 21/07/2021
DÍAZ PORTILLO, CRISTIAN 0,250 0,000 29,000 0,500 29,750 0,250 0,000 29,000 0,000 29,250 21/07/2021
GARCÍA JIMÉNEZ, ANTONIO 0,750 0,000 29,000 0,000 29,750 0,750 0,000 29,000 0,000 29,750 21/07/2021
GARCIA MARIN, JUANA 4,750 0,000 25,000 0,000 29,750 4,750 0,000 25,000 0,000 29,750 21/07/2021
GÓMEZ CONTRERAS, MARIA DOLORES 0,000 0,750 29,000 0,000 29,750 0,000 0,400 29,000 0,000 29,400 21/07/2021
GOMEZ MOLINA, SOFIA 0,550 0,200 29,000 0,000 29,750 0,550 0,200 29,000 0,000 29,750 21/07/2021
LIZARTE NAVARRO, Mª ISABEL 0,000 0,000 29,000 0,750 29,750 0,000 0,000 29,000 0,000 29,000 21/07/2021
MARTIN POMARES, ISABEL MARIA 0,750 0,000 29,000 0,000 29,750 0,750 0,000 29,000 0,000 29,750 21/07/2021
MUELAS DELGADO, ANTONIA 0,750 0,000 29,000 0,000 29,750 0,750 0,000 22,800 0,000 23,550 21/07/2021
VERA JIMENEZ, FRANCISCO JAVIER 0,750 0,000 29,000 0,000 29,750 0,750 0,000 25,000 0,000 25,750 21/07/2021
GUTIERREZ MEDINA, MACARENA 1,050 0,400 28,275 0,000 29,725 1,050 0,000 28,275 0,000 29,325 21/07/2021
CANTADOR CORDOBA, NOELIA 0,700 0,000 29,000 0,000 29,700 0,700 0,000 4,000 0,000 4,700 21/07/2021
GONZÁLEZ GARROTE, NEREA 0,000 4,700 25,000 0,000 29,700 0,000 2,300 25,000 0,000 27,300 21/07/2021
LORCA JIMÉNEZ, BEATRIZ 0,000 4,700 25,000 0,000 29,700 0,000 0,000 1,500 0,000 1,500 21/07/2021
MARTIN MORENO, ARACELI 0,650 0,050 29,000 0,000 29,700 0,650 0,050 25,000 0,000 25,700 21/07/2021
MATARIN MARTIN, BEATRIZ 0,000 0,200 29,000 0,500 29,700 0,000 0,000 29,000 0,000 29,000 21/07/2021
MIJE BERSABE, ANA MARIA 0,700 0,000 29,000 0,000 29,700 0,700 0,000 29,000 0,000 29,700 21/07/2021
REVIRIEGO GALAN, JOSE ALBERTO 0,450 0,100 29,000 0,150 29,700 0,450 0,000 29,000 0,000 29,450 21/07/2021
RODRIGUEZ CARDOSO, JOSE MARIA 0,100 0,600 29,000 0,000 29,700 0,100 0,000 29,000 0,000 29,100 21/07/2021
ROMERO BERMUDO, JUAN JOSÉ 0,400 0,300 29,000 0,000 29,700 0,400 0,300 19,000 0,000 19,700 21/07/2021
SANCHEZ MANZANEQUE, CYNTHIA 0,000 0,700 29,000 0,000 29,700 0,000 0,000 29,000 0,000 29,000 21/07/2021
ALVAREZ MARTIN, JOSEFA MARIA 0,000 0,500 29,000 0,150 29,650 0,000 0,000 29,000 0,000 29,000 21/07/2021
CRUZ VIDAL, LETICIA 0,650 0,000 29,000 0,000 29,650 0,650 0,000 29,000 0,000 29,650 21/07/2021
ORELLANA PEREZ, TRIANA 0,650 0,000 29,000 0,000 29,650 0,650 0,000 29,000 0,000 29,650 21/07/2021
VARGAS GONZALEZ, LYDIA 0,650 0,000 29,000 0,000 29,650 0,650 0,000 29,000 0,000 29,650 21/07/2021
AGUILERA SANCHEZ, MARIANGELES 0,400 0,050 29,000 0,150 29,600 0,400 0,000 29,000 0,000 29,400 21/07/2021
ALVAREZ CABRERA, TANIA 4,350 0,000 25,000 0,250 29,600 4,350 0,000 25,000 0,250 29,600 21/07/2021
AMAYA BEJAR, ALMUDENA 0,600 0,000 29,000 0,000 29,600 0,600 0,000 29,000 0,000 29,600 21/07/2021
ARMARIO SÁNCHEZ, JESÚS 0,600 0,000 29,000 0,000 29,600 0,600 0,000 27,500 0,000 28,100 21/07/2021
BRUNO MUÑOZ, ALEJANDRO 0,000 4,500 25,000 0,100 29,600 0,000 0,000 12,000 0,000 12,000 21/07/2021
CARRILLO GARCIA, MARIA JOSE 0,000 0,600 29,000 0,000 29,600 0,000 0,000 4,000 0,000 4,000 21/07/2021
CORDERO SANCHEZ, JOSE CARLOS 0,250 0,350 29,000 0,000 29,600 0,250 0,350 29,000 0,000 29,600 21/07/2021
DE MIGUEL GOMEZ, ALICIA 0,000 0,600 29,000 0,000 29,600 0,000 0,000 24,500 0,000 24,500 21/07/2021
DEL CAMPO TINEO, ANA ISABEL 0,600 0,000 29,000 0,000 29,600 0,600 0,000 29,000 0,000 29,600 21/07/2021
DOMÍNGUEZ GONZÁLEZ, MARÍA ROCÍO 0,000 0,600 29,000 0,000 29,600 0,000 0,600 29,000 0,000 29,600 21/07/2021
GARCÍA CAÑADILLAS, NAZAREHT 0,000 0,000 29,000 0,600 29,600 0,000 0,000 29,000 0,000 29,000 21/07/2021
GOMEZ RICO, MARINA 0,000 0,600 29,000 0,000 29,600 0,000 0,600 29,000 0,000 29,600 21/07/2021
GONZÁLEZ GUIRADO, VIRGINIA 0,600 0,000 29,000 0,000 29,600 0,600 0,000 29,000 0,000 29,600 21/07/2021
GONZÁLEZ ZAPATA, JOSEFA PILAR 0,000 0,600 29,000 0,000 29,600 0,000 0,600 25,000 0,000 25,600 21/07/2021
HERRERA GARCIA, IRENE 0,600 0,000 29,000 0,000 29,600 0,600 0,000 29,000 0,000 29,600 21/07/2021
LEYVA GUERRERO, MARIA SUSANA 0,900 11,400 14,300 3,000 29,600 0,900 11,400 12,450 3,000 27,750 21/07/2021
LÓPEZ IGLESIAS, OLGA 0,600 0,000 29,000 0,000 29,600 0,600 0,000 29,000 0,000 29,600 21/07/2021
LOPEZ RODRIGUEZ, ANGELA 0,600 0,000 29,000 0,000 29,600 0,600 0,000 29,000 0,000 29,600 21/07/2021
LOPEZ TORRES, EDUARDO 1,600 0,000 25,000 3,000 29,600 1,600 0,000 25,000 3,000 29,600 21/07/2021
LUNA GALAN, ANTONIO JESUS 0,000 0,600 29,000 0,000 29,600 0,000 0,000 25,000 0,000 25,000 21/07/2021
MARTINEZ JIMENEZ, ALVARO 0,600 0,000 29,000 0,000 29,600 0,600 0,000 29,000 0,000 29,600 21/07/2021
MOLLEJA GALLEGO, RAFAEL 0,600 0,000 29,000 0,000 29,600 0,600 0,000 4,250 0,000 4,850 21/07/2021
ORTEGA PÉREZ, VANESA 0,200 0,000 29,000 0,400 29,600 0,200 0,000 29,000 0,000 29,200 21/07/2021
OSORIO FERNANDEZ, NURIA 0,000 0,600 29,000 0,000 29,600 0,000 0,000 18,300 0,000 18,300 21/07/2021
PEREGRINA MORALES, IRENE 0,600 0,000 29,000 0,000 29,600 0,600 0,000 4,000 0,000 4,600 21/07/2021
PLA CAMACHO, LEONOR MARÍA 0,100 0,500 20,000 9,000 29,600 0,100 0,000 4,000 0,000 4,100 21/07/2021
PUIG SANCHEZ, NOELIA MARIA 0,600 0,000 29,000 0,000 29,600 0,600 0,000 29,000 0,000 29,600 21/07/2021
RODRIGUEZ GUERRERO, AMPARO MARIA 0,600 0,000 29,000 0,000 29,600 0,600 0,000 19,150 0,000 19,750 21/07/2021
ROS ROSIQUE, ROSALIA 0,000 0,600 29,000 0,000 29,600 0,000 0,000 23,250 0,000 23,250 21/07/2021
SÁNCHEZ LÓPEZ, MACARENA 0,000 4,600 25,000 0,000 29,600 0,000 0,000 14,625 0,000 14,625 21/07/2021
SANCHEZ PERALTA, VICTOR GABRIEL 0,000 0,600 29,000 0,000 29,600 0,000 0,600 4,000 0,000 4,600 21/07/2021
SAURA MARÍN, MARÍA VICTORIA 0,000 0,000 29,000 0,600 29,600 0,000 0,000 9,500 0,000 9,500 21/07/2021
TORRES SANCHEZ, VERONICA 0,600 0,000 29,000 0,000 29,600 0,600 0,000 29,000 0,000 29,600 21/07/2021
TRIVIÑO RUIZ, CRISTINA 0,000 0,600 29,000 0,000 29,600 0,000 0,000 29,000 0,000 29,000 21/07/2021
VARGAS ORTIZ, JUAN MARIA 4,600 0,000 25,000 0,000 29,600 4,600 0,000 15,700 0,000 20,300 21/07/2021
ZAFRA MIRANDA, GEMA 0,600 0,000 29,000 0,000 29,600 0,600 0,000 29,000 0,000 29,600 21/07/2021
ZORRILLA JIMENEZ, ANA 0,000 0,600 29,000 0,000 29,600 0,000 0,000 4,350 0,000 4,350 21/07/2021
AGUILERA SANCHEZ, MARIA JOSE 0,550 0,000 29,000 0,000 29,550 0,550 0,000 28,500 0,000 29,050 21/07/2021
BAREA MUÑOZ, LAURA 0,050 0,000 29,000 0,500 29,550 0,050 0,000 29,000 0,000 29,050 21/07/2021
BONILLA DOMINGO, MARIA DEL PILAR 0,550 0,000 29,000 0,000 29,550 0,550 0,000 29,000 0,000 29,550 21/07/2021
CAMPOS CHECA, JOSE MIGUEL 0,150 0,400 29,000 0,000 29,550 0,150 0,000 29,000 0,000 29,150 21/07/2021
IBAÑEZ MORALES, LOURDES 0,150 0,400 29,000 0,000 29,550 0,150 0,400 29,000 0,000 29,550 21/07/2021
LÓPEZ BARRANCO, SORAYA 0,550 0,000 29,000 0,000 29,550 0,550 0,000 25,000 0,000 25,550 21/07/2021
MUÑOZ SÁNCHEZ, ANDREA 0,550 0,000 29,000 0,000 29,550 0,550 0,000 29,000 0,000 29,550 21/07/2021
SÁNCHEZ LÓPEZ, NATALIA 0,000 0,550 29,000 0,000 29,550 0,000 0,550 29,000 0,000 29,550 21/07/2021
MUÑOZ CORRAL, SUSANA 4,200 3,600 21,675 0,050 29,525 4,200 3,600 17,925 0,000 25,725 21/07/2021
RODRIGUEZ VERGARA, DOLORES 5,150 0,300 24,075 0,000 29,525 5,150 0,000 20,900 0,000 26,050 21/07/2021
ANGULO GOMEZ, Mª TANIA 1,500 0,000 25,000 3,000 29,500 1,500 0,000 20,100 3,000 24,600 21/07/2021
ARBOLEDAS GOMEZ, FRANCISCA 0,000 0,500 29,000 0,000 29,500 0,000 0,000 9,000 0,000 9,000 21/07/2021
BELTRÁN ROLDÁN, CRISTINA 0,000 0,500 29,000 0,000 29,500 0,000 0,500 19,000 0,000 19,500 21/07/2021
BLANES RODRIGUEZ, JOSE LUIS 0,000 0,000 29,000 0,500 29,500 0,000 0,000 29,000 0,000 29,000 21/07/2021
CABRERA LOPEZ, ELENA 0,500 0,000 29,000 0,000 29,500 0,500 0,000 29,000 0,000 29,500 21/07/2021
CASALILLA SIERRA, CONSOLACIÓN 0,500 0,000 29,000 0,000 29,500 0,500 0,000 29,000 0,000 29,500 21/07/2021
DELGADO PEÑUELA, GABRIEL 0,000 0,000 29,000 0,500 29,500 0,000 0,000 25,000 0,000 25,000 21/07/2021
FRANCO NARANJO, JOSE MARIA 0,000 0,000 29,000 0,500 29,500 0,000 0,000 29,000 0,000 29,000 21/07/2021
GALERA HERNÁNDEZ, ANA BERTA 0,000 0,500 29,000 0,000 29,500 0,000 0,000 11,850 0,000 11,850 21/07/2021
GARCÍA ARAGÓN, EVA MARIA 0,000 0,000 29,000 0,500 29,500 0,000 0,000 29,000 0,000 29,000 21/07/2021
GARCIA LOPEZ, JESUS 0,000 0,000 29,000 0,500 29,500 0,000 0,000 17,800 0,000 17,800 21/07/2021
GARCÍA-JUNCO CORREDERA, ANGELA 0,000 4,500 25,000 0,000 29,500 0,000 4,500 25,000 0,000 29,500 21/07/2021
GARZON MASSIA, CARMEN 0,050 0,450 29,000 0,000 29,500 0,050 0,450 29,000 0,000 29,500 21/07/2021
GOMEZ PARDO, JAIRO 0,000 4,500 25,000 0,000 29,500 0,000 0,000 25,000 0,000 25,000 21/07/2021

- Al posicionarse sobre el número de página le aparecerá el rango de notas de autobaremo que contiene dicha página

[1]  [2]  [3]  [4]  [5]  [6]  [7]  [8]  [9]  [10]  [11]  [12]  [13]  [14]  [15]  [16]  [17]  [18]  [19]  [20]  [21]  [22]  [23]  [24]  [25]  [26]  [27]  [28]  [29]  [30]  [31]  [32]  [33]  [34]  [35] 


Color de candidatos/as que por autobaremo alcanzan puntuación mínima para formar parte de la bolsa Candidatos/as que por autobaremo alcanzan puntuación mínima para formar parte de la bolsa

Color de Candidatos/as que no alcanzan puntuación mínima para formar parte de la bolsa Candidatos/as que no alcanzan puntuación mínima para formar parte de la bolsa



[Volver]